Honda

Oferta

Wybierz model:

Znajdziemy samochód dla Ciebie! Podaj nam szczegóły -Wypełnij formularz

Wyniki wyszukiwania: (Znaleziono 23 pojazdów spełniających kryteria)

Wyświetlaj na stronie: 20 40
Zdjęcie Model
Cena
Typ silnika
Pojemność [l]
Rok prod.
Przebieg [km]
Opis Data
Pathfinder 2.5 dCi Pathfinder 2.5 dCi 79 900 PLN Olej napędowy (diesel) 2.5 2009 27 900 Nissan Pathfinder 2.5 DCi 140KM automat 2009 16.04.2014
Berlingo 1.6 Multispace Berlingo 1.6 Multispace 29 900 PLN Benzyna 1.6 2008 134 450 Citroen Berlingo 1.6 Multispace 2008 16.04.2014
MiTo 1.4 16V MPI MiTo 1.4 16V MPI 34 900 PLN Benzyna 1.4 2009 43 715 Alfa Romeo MiTo 1.4 120KM 2009/2010 16.04.2014
Golf Golf 43 000 PLN Olej napędowy (diesel) 1.6 2010 85 700 VW Golf VI 1.6 TDI 2010 16.04.2014
A3 A3 59 000 PLN Benzyna 1.2 2011 40 250 Audi A3 Prime Line 105KM 2011 23% VAT   16.04.2014
Civic Civic 42 900 PLN Benzyna 1.8 2008 53 190 Honda Civic 5D 1.8 AT (i-SHIFT) Executive 2008 15.04.2014
Civic Civic 49 900 PLN Benzyna 1.8 2009 78 000 Honda Civic 5D 1.8 MT Executive 2009 15.04.2014
Accord Accord 79 900 PLN Benzyna 2.0 2011 89 270 Honda Accord 4D 2.0 MT Executive + skóra jasna 2011/2012 15.04.2014
Accord Accord 85 900 PLN Benzyna 2.0 2011 21 797 Honda Accord Tourer 2.0 MT 156KM Executive + NAVI 2011 23% VAT 15.04.2014
Mondeo Mondeo 12 000 PLN Olej napędowy (diesel) 2.0 2003 173 300 Ford Mondeo 2.0 TDCI 130KM automat GHIA + skóra 2003 06.04.2014
Kuga 2.0 TDCi Kuga 2.0 TDCi 92 900 PLN Olej napędowy (diesel) 2.0 2013 36 520 Ford Kuga 2.0 TDCI 140KM Trend 2WD 2013 23% VAT 06.04.2014
HR-V HR-V 25 500 PLN Benzyna 1.6 2004 144 300 Honda HR-V 1.6 i-VTEC 125KM 2004/2005 06.04.2014
Civic Civic 39 900 PLN Benzyna 1.8 2008 85 200 Honda Civic TypeS Plus 1.8 MT 2009 06.04.2014
Rio Rio 36 900 PLN Benzyna 1.2 2011 53 739 Kia Rio XL 1.2 85KM 2011 23% VAT 31.03.2014
Corolla Corolla 35 900 PLN Olej napędowy (diesel) 1.4 2009 113 000 Toyota Corolla 1.4 D4D 2009/2010 22.03.2014
X Trail X Trail 54 900 PLN Benzyna 2.5 2008 125 200 Nissan X-Trail LS 2.5 169KM 2008/2009 06.03.2014
Civic Civic 63 900 PLN Benzyna 1.4 2013 9 061 Honda Civic 5D 1.4 MT Sport 2013 23% VAT demo Salonu 02.03.2014
Civic Civic 74 900 PLN Olej napędowy (diesel) 1.6 2013 38 500 Honda Civic 5D 1.6 diesel 120KM Lifestyle 2013 23% VAT 23.02.2014
Berlingo Berlingo 35 900 PLN Olej napędowy (diesel) 1.6 2009 106 250 Citroen Berlingo Multispace 1.6 diesel 109KM 2009 19.02.2014
Jazz Jazz 47 900 PLN Benzyna 1.2 2012 1 500 Honda Jazz 1.2 MT Trend 2012 23% VAT 09.02.2014